sensor_id;sensor_type;location;lat;lon;timestamp;P1;durP1;ratioP1;P2;durP2;ratioP2
3985;SDS011;2007;48.750;9.278;2022-11-09T00:00:47;2.97;;;2.33;;
3985;SDS011;2007;48.750;9.278;2022-11-09T00:03:16;2.50;;;2.10;;
3985;SDS011;2007;48.750;9.278;2022-11-09T00:05:53;2.90;;;2.20;;
3985;SDS011;2007;48.750;9.278;2022-11-09T00:08:21;3.23;;;2.60;;
3985;SDS011;2007;48.750;9.278;2022-11-09T00:10:49;2.87;;;2.00;;
3985;SDS011;2007;48.750;9.278;2022-11-09T00:13:17;2.80;;;2.40;;
3985;SDS011;2007;48.750;9.278;2022-11-09T00:15:45;3.27;;;2.90;;
3985;SDS011;2007;48.750;9.278;2022-11-09T00:18:13;3.57;;;2.30;;
3985;SDS011;2007;48.750;9.278;2022-11-09T00:20:42;2.40;;;2.20;;
3985;SDS011;2007;48.750;9.278;2022-11-09T00:23:13;2.23;;;1.97;;
3985;SDS011;2007;48.750;9.278;2022-11-09T00:25:42;2.37;;;1.83;;
3985;SDS011;2007;48.750;9.278;2022-11-09T00:28:10;2.53;;;1.97;;
3985;SDS011;2007;48.750;9.278;2022-11-09T00:30:38;2.60;;;2.00;;
3985;SDS011;2007;48.750;9.278;2022-11-09T00:33:06;2.33;;;1.90;;
3985;SDS011;2007;48.750;9.278;2022-11-09T00:35:36;2.40;;;2.03;;
3985;SDS011;2007;48.750;9.278;2022-11-09T00:38:05;3.23;;;2.13;;
3985;SDS011;2007;48.750;9.278;2022-11-09T00:40:33;2.33;;;1.83;;
3985;SDS011;2007;48.750;9.278;2022-11-09T00:43:01;2.40;;;1.70;;
3985;SDS011;2007;48.750;9.278;2022-11-09T00:45:29;3.40;;;2.70;;
3985;SDS011;2007;48.750;9.278;2022-11-09T00:47:57;2.47;;;2.10;;
3985;SDS011;2007;48.750;9.278;2022-11-09T00:50:25;3.00;;;2.07;;
3985;SDS011;2007;48.750;9.278;2022-11-09T00:52:53;2.33;;;2.13;;
3985;SDS011;2007;48.750;9.278;2022-11-09T00:55:22;2.70;;;2.10;;
3985;SDS011;2007;48.750;9.278;2022-11-09T00:57:50;2.47;;;2.27;;
3985;SDS011;2007;48.750;9.278;2022-11-09T01:00:18;1.80;;;1.60;;
3985;SDS011;2007;48.750;9.278;2022-11-09T01:02:48;2.40;;;1.80;;
3985;SDS011;2007;48.750;9.278;2022-11-09T01:05:16;2.57;;;2.27;;
3985;SDS011;2007;48.750;9.278;2022-11-09T01:07:44;4.17;;;2.37;;
3985;SDS011;2007;48.750;9.278;2022-11-09T01:10:12;3.43;;;2.70;;
3985;SDS011;2007;48.750;9.278;2022-11-09T01:12:41;2.73;;;2.30;;
3985;SDS011;2007;48.750;9.278;2022-11-09T01:15:09;2.73;;;2.00;;
3985;SDS011;2007;48.750;9.278;2022-11-09T01:17:37;2.77;;;2.07;;
3985;SDS011;2007;48.750;9.278;2022-11-09T01:20:05;2.73;;;2.40;;
3985;SDS011;2007;48.750;9.278;2022-11-09T01:22:34;2.70;;;2.20;;
3985;SDS011;2007;48.750;9.278;2022-11-09T01:25:02;3.13;;;2.53;;
3985;SDS011;2007;48.750;9.278;2022-11-09T01:27:30;3.50;;;2.37;;
3985;SDS011;2007;48.750;9.278;2022-11-09T01:30:00;2.97;;;2.30;;
3985;SDS011;2007;48.750;9.278;2022-11-09T01:32:30;2.30;;;1.80;;
3985;SDS011;2007;48.750;9.278;2022-11-09T01:34:58;2.27;;;2.07;;
3985;SDS011;2007;48.750;9.278;2022-11-09T01:37:26;2.97;;;2.40;;
3985;SDS011;2007;48.750;9.278;2022-11-09T01:39:54;2.37;;;2.00;;
3985;SDS011;2007;48.750;9.278;2022-11-09T01:42:22;2.93;;;2.27;;
3985;SDS011;2007;48.750;9.278;2022-11-09T01:47:53;2.80;;;2.60;;
3985;SDS011;2007;48.750;9.278;2022-11-09T01:50:29;3.17;;;2.70;;
3985;SDS011;2007;48.750;9.278;2022-11-09T01:53:02;3.30;;;2.50;;
3985;SDS011;2007;48.750;9.278;2022-11-09T01:55:32;2.77;;;2.43;;
3985;SDS011;2007;48.750;9.278;2022-11-09T01:58:01;5.80;;;2.20;;
3985;SDS011;2007;48.750;9.278;2022-11-09T02:00:34;2.97;;;2.10;;
3985;SDS011;2007;48.750;9.278;2022-11-09T02:03:04;2.70;;;2.20;;
3985;SDS011;2007;48.750;9.278;2022-11-09T02:05:35;2.73;;;2.00;;
3985;SDS011;2007;48.750;9.278;2022-11-09T02:08:06;3.70;;;2.43;;
3985;SDS011;2007;48.750;9.278;2022-11-09T02:10:39;3.20;;;2.30;;
3985;SDS011;2007;48.750;9.278;2022-11-09T02:13:11;2.83;;;2.33;;
3985;SDS011;2007;48.750;9.278;2022-11-09T02:15:44;2.43;;;2.10;;
3985;SDS011;2007;48.750;9.278;2022-11-09T02:18:11;3.90;;;2.80;;
3985;SDS011;2007;48.750;9.278;2022-11-09T02:20:45;2.50;;;2.10;;
3985;SDS011;2007;48.750;9.278;2022-11-09T02:23:15;3.53;;;2.40;;
3985;SDS011;2007;48.750;9.278;2022-11-09T02:25:44;2.40;;;2.20;;
3985;SDS011;2007;48.750;9.278;2022-11-09T02:28:15;3.07;;;2.77;;
3985;SDS011;2007;48.750;9.278;2022-11-09T02:30:44;3.50;;;2.43;;
3985;SDS011;2007;48.750;9.278;2022-11-09T02:33:15;2.67;;;2.47;;
3985;SDS011;2007;48.750;9.278;2022-11-09T02:35:45;2.50;;;2.30;;
3985;SDS011;2007;48.750;9.278;2022-11-09T02:38:13;3.07;;;2.10;;
3985;SDS011;2007;48.750;9.278;2022-11-09T02:40:43;3.53;;;2.60;;
3985;SDS011;2007;48.750;9.278;2022-11-09T02:43:13;2.63;;;2.30;;
3985;SDS011;2007;48.750;9.278;2022-11-09T02:45:43;2.80;;;2.00;;
3985;SDS011;2007;48.750;9.278;2022-11-09T02:48:11;2.77;;;2.53;;
3985;SDS011;2007;48.750;9.278;2022-11-09T02:50:39;2.90;;;2.40;;
3985;SDS011;2007;48.750;9.278;2022-11-09T02:53:08;2.73;;;2.40;;
3985;SDS011;2007;48.750;9.278;2022-11-09T02:55:36;2.93;;;2.27;;
3985;SDS011;2007;48.750;9.278;2022-11-09T02:58:04;2.40;;;1.93;;
3985;SDS011;2007;48.750;9.278;2022-11-09T03:00:31;2.63;;;2.10;;
3985;SDS011;2007;48.750;9.278;2022-11-09T03:02:59;3.50;;;2.80;;
3985;SDS011;2007;48.750;9.278;2022-11-09T03:05:27;3.00;;;2.70;;
3985;SDS011;2007;48.750;9.278;2022-11-09T03:07:55;2.60;;;2.13;;
3985;SDS011;2007;48.750;9.278;2022-11-09T03:10:28;3.00;;;2.17;;
3985;SDS011;2007;48.750;9.278;2022-11-09T03:12:56;2.30;;;2.10;;
3985;SDS011;2007;48.750;9.278;2022-11-09T03:15:24;2.77;;;2.17;;
3985;SDS011;2007;48.750;9.278;2022-11-09T03:17:52;3.37;;;2.80;;
3985;SDS011;2007;48.750;9.278;2022-11-09T03:20:20;5.03;;;2.30;;
3985;SDS011;2007;48.750;9.278;2022-11-09T03:22:47;4.40;;;2.80;;
3985;SDS011;2007;48.750;9.278;2022-11-09T03:25:15;3.03;;;2.33;;
3985;SDS011;2007;48.750;9.278;2022-11-09T03:27:44;2.63;;;2.00;;
3985;SDS011;2007;48.750;9.278;2022-11-09T03:30:12;2.90;;;2.30;;
3985;SDS011;2007;48.750;9.278;2022-11-09T03:32:41;2.67;;;2.43;;
3985;SDS011;2007;48.750;9.278;2022-11-09T03:35:15;3.33;;;2.90;;
3985;SDS011;2007;48.750;9.278;2022-11-09T03:37:43;2.33;;;2.13;;
3985;SDS011;2007;48.750;9.278;2022-11-09T03:40:11;4.87;;;2.53;;
3985;SDS011;2007;48.750;9.278;2022-11-09T03:42:42;3.00;;;2.57;;
3985;SDS011;2007;48.750;9.278;2022-11-09T03:45:12;2.67;;;2.23;;
3985;SDS011;2007;48.750;9.278;2022-11-09T03:47:40;2.90;;;2.40;;
3985;SDS011;2007;48.750;9.278;2022-11-09T03:50:09;2.80;;;2.27;;
3985;SDS011;2007;48.750;9.278;2022-11-09T03:52:37;3.90;;;2.47;;
3985;SDS011;2007;48.750;9.278;2022-11-09T03:55:05;2.30;;;2.10;;
3985;SDS011;2007;48.750;9.278;2022-11-09T03:57:33;2.50;;;2.30;;
3985;SDS011;2007;48.750;9.278;2022-11-09T04:00:02;4.17;;;2.93;;
3985;SDS011;2007;48.750;9.278;2022-11-09T04:02:32;3.60;;;2.50;;
3985;SDS011;2007;48.750;9.278;2022-11-09T04:05:00;2.77;;;2.30;;
3985;SDS011;2007;48.750;9.278;2022-11-09T04:07:28;2.93;;;2.00;;
3985;SDS011;2007;48.750;9.278;2022-11-09T04:09:56;3.43;;;2.27;;
3985;SDS011;2007;48.750;9.278;2022-11-09T04:12:23;2.90;;;2.60;;
3985;SDS011;2007;48.750;9.278;2022-11-09T04:14:51;4.03;;;3.23;;
3985;SDS011;2007;48.750;9.278;2022-11-09T04:17:20;3.00;;;2.60;;
3985;SDS011;2007;48.750;9.278;2022-11-09T04:19:49;2.73;;;2.43;;
3985;SDS011;2007;48.750;9.278;2022-11-09T04:22:17;3.83;;;2.53;;
3985;SDS011;2007;48.750;9.278;2022-11-09T04:24:45;2.33;;;2.07;;
3985;SDS011;2007;48.750;9.278;2022-11-09T04:27:12;4.53;;;2.50;;
3985;SDS011;2007;48.750;9.278;2022-11-09T04:29:40;2.60;;;2.40;;
3985;SDS011;2007;48.750;9.278;2022-11-09T04:32:08;3.67;;;2.53;;
3985;SDS011;2007;48.750;9.278;2022-11-09T04:34:36;3.20;;;2.60;;
3985;SDS011;2007;48.750;9.278;2022-11-09T04:37:07;2.83;;;2.20;;
3985;SDS011;2007;48.750;9.278;2022-11-09T04:39:35;2.90;;;2.43;;
3985;SDS011;2007;48.750;9.278;2022-11-09T04:42:03;2.40;;;2.20;;
3985;SDS011;2007;48.750;9.278;2022-11-09T04:44:31;2.43;;;2.23;;
3985;SDS011;2007;48.750;9.278;2022-11-09T04:46:59;3.70;;;2.80;;
3985;SDS011;2007;48.750;9.278;2022-11-09T04:49:27;2.90;;;2.53;;
3985;SDS011;2007;48.750;9.278;2022-11-09T04:51:55;3.30;;;2.70;;
3985;SDS011;2007;48.750;9.278;2022-11-09T04:54:24;3.27;;;2.60;;
3985;SDS011;2007;48.750;9.278;2022-11-09T04:56:52;3.13;;;2.63;;
3985;SDS011;2007;48.750;9.278;2022-11-09T04:59:19;3.10;;;2.80;;
3985;SDS011;2007;48.750;9.278;2022-11-09T05:01:47;2.60;;;2.23;;
3985;SDS011;2007;48.750;9.278;2022-11-09T05:04:15;2.93;;;2.40;;
3985;SDS011;2007;48.750;9.278;2022-11-09T05:06:43;3.17;;;2.57;;
3985;SDS011;2007;48.750;9.278;2022-11-09T05:09:11;2.67;;;1.90;;
3985;SDS011;2007;48.750;9.278;2022-11-09T05:11:40;3.23;;;2.93;;
3985;SDS011;2007;48.750;9.278;2022-11-09T05:14:08;2.80;;;2.50;;
3985;SDS011;2007;48.750;9.278;2022-11-09T05:16:36;2.30;;;1.77;;
3985;SDS011;2007;48.750;9.278;2022-11-09T05:19:04;2.53;;;2.30;;
3985;SDS011;2007;48.750;9.278;2022-11-09T05:21:31;4.90;;;2.47;;
3985;SDS011;2007;48.750;9.278;2022-11-09T05:23:59;3.20;;;2.23;;
3985;SDS011;2007;48.750;9.278;2022-11-09T05:26:28;2.43;;;2.10;;
3985;SDS011;2007;48.750;9.278;2022-11-09T05:28:58;2.80;;;2.37;;
3985;SDS011;2007;48.750;9.278;2022-11-09T05:31:28;6.53;;;2.53;;
3985;SDS011;2007;48.750;9.278;2022-11-09T05:33:57;2.60;;;2.40;;
3985;SDS011;2007;48.750;9.278;2022-11-09T05:36:25;2.60;;;2.27;;
3985;SDS011;2007;48.750;9.278;2022-11-09T05:38:54;2.93;;;2.17;;
3985;SDS011;2007;48.750;9.278;2022-11-09T05:41:23;4.20;;;2.80;;
3985;SDS011;2007;48.750;9.278;2022-11-09T05:43:51;2.43;;;1.97;;
3985;SDS011;2007;48.750;9.278;2022-11-09T05:46:21;2.50;;;2.00;;
3985;SDS011;2007;48.750;9.278;2022-11-09T05:48:49;3.23;;;2.40;;
3985;SDS011;2007;48.750;9.278;2022-11-09T05:51:16;2.23;;;2.03;;
3985;SDS011;2007;48.750;9.278;2022-11-09T05:53:44;3.43;;;2.17;;
3985;SDS011;2007;48.750;9.278;2022-11-09T05:56:12;2.73;;;2.43;;
3985;SDS011;2007;48.750;9.278;2022-11-09T05:58:41;2.13;;;1.93;;
3985;SDS011;2007;48.750;9.278;2022-11-09T06:01:10;2.60;;;2.13;;
3985;SDS011;2007;48.750;9.278;2022-11-09T06:03:40;4.13;;;2.57;;
3985;SDS011;2007;48.750;9.278;2022-11-09T06:06:10;2.50;;;2.27;;
3985;SDS011;2007;48.750;9.278;2022-11-09T06:08:40;2.83;;;1.90;;
3985;SDS011;2007;48.750;9.278;2022-11-09T06:11:09;3.07;;;2.63;;
3985;SDS011;2007;48.750;9.278;2022-11-09T06:13:46;2.90;;;2.40;;
3985;SDS011;2007;48.750;9.278;2022-11-09T06:16:14;2.90;;;2.37;;
3985;SDS011;2007;48.750;9.278;2022-11-09T06:18:44;2.40;;;2.20;;
3985;SDS011;2007;48.750;9.278;2022-11-09T06:21:11;2.70;;;2.43;;
3985;SDS011;2007;48.750;9.278;2022-11-09T06:23:39;2.30;;;2.00;;
3985;SDS011;2007;48.750;9.278;2022-11-09T06:26:08;2.73;;;1.77;;
3985;SDS011;2007;48.750;9.278;2022-11-09T06:28:37;2.47;;;2.00;;
3985;SDS011;2007;48.750;9.278;2022-11-09T06:31:06;3.37;;;2.50;;
3985;SDS011;2007;48.750;9.278;2022-11-09T06:33:36;2.90;;;2.27;;
3985;SDS011;2007;48.750;9.278;2022-11-09T06:36:05;2.43;;;2.10;;
3985;SDS011;2007;48.750;9.278;2022-11-09T06:38:35;3.17;;;2.27;;
3985;SDS011;2007;48.750;9.278;2022-11-09T06:41:03;2.40;;;2.03;;
3985;SDS011;2007;48.750;9.278;2022-11-09T06:43:31;4.20;;;2.67;;
3985;SDS011;2007;48.750;9.278;2022-11-09T06:46:01;2.50;;;2.30;;
3985;SDS011;2007;48.750;9.278;2022-11-09T06:48:29;2.50;;;2.13;;
3985;SDS011;2007;48.750;9.278;2022-11-09T06:51:00;2.70;;;2.20;;
3985;SDS011;2007;48.750;9.278;2022-11-09T06:53:31;3.93;;;2.70;;
3985;SDS011;2007;48.750;9.278;2022-11-09T06:56:00;3.33;;;2.47;;
3985;SDS011;2007;48.750;9.278;2022-11-09T06:58:30;3.50;;;2.27;;
3985;SDS011;2007;48.750;9.278;2022-11-09T07:00:58;2.50;;;2.27;;
3985;SDS011;2007;48.750;9.278;2022-11-09T07:03:26;2.67;;;2.20;;
3985;SDS011;2007;48.750;9.278;2022-11-09T07:05:54;2.80;;;2.43;;
3985;SDS011;2007;48.750;9.278;2022-11-09T07:08:22;3.07;;;2.30;;
3985;SDS011;2007;48.750;9.278;2022-11-09T07:10:51;2.00;;;1.63;;
3985;SDS011;2007;48.750;9.278;2022-11-09T07:13:19;3.60;;;2.23;;
3985;SDS011;2007;48.750;9.278;2022-11-09T07:15:51;2.47;;;1.97;;
3985;SDS011;2007;48.750;9.278;2022-11-09T07:18:20;2.80;;;2.33;;
3985;SDS011;2007;48.750;9.278;2022-11-09T07:20:48;2.50;;;2.30;;
3985;SDS011;2007;48.750;9.278;2022-11-09T07:23:17;2.63;;;2.23;;
3985;SDS011;2007;48.750;9.278;2022-11-09T07:25:45;3.37;;;2.27;;
3985;SDS011;2007;48.750;9.278;2022-11-09T07:28:14;2.53;;;2.03;;
3985;SDS011;2007;48.750;9.278;2022-11-09T07:30:42;2.80;;;2.50;;
3985;SDS011;2007;48.750;9.278;2022-11-09T07:33:11;2.53;;;2.33;;
3985;SDS011;2007;48.750;9.278;2022-11-09T07:35:43;2.80;;;2.13;;
3985;SDS011;2007;48.750;9.278;2022-11-09T07:38:11;2.30;;;1.80;;
3985;SDS011;2007;48.750;9.278;2022-11-09T07:40:40;2.87;;;2.30;;
3985;SDS011;2007;48.750;9.278;2022-11-09T07:43:09;3.33;;;2.00;;
3985;SDS011;2007;48.750;9.278;2022-11-09T07:45:39;2.83;;;2.27;;
3985;SDS011;2007;48.750;9.278;2022-11-09T07:48:07;1.90;;;1.60;;
3985;SDS011;2007;48.750;9.278;2022-11-09T07:50:37;2.57;;;2.20;;
3985;SDS011;2007;48.750;9.278;2022-11-09T07:53:07;3.00;;;2.60;;
3985;SDS011;2007;48.750;9.278;2022-11-09T07:55:36;3.10;;;2.20;;
3985;SDS011;2007;48.750;9.278;2022-11-09T07:58:04;3.00;;;2.10;;
3985;SDS011;2007;48.750;9.278;2022-11-09T08:00:34;2.30;;;1.97;;
3985;SDS011;2007;48.750;9.278;2022-11-09T08:03:04;2.30;;;2.00;;
3985;SDS011;2007;48.750;9.278;2022-11-09T08:05:33;2.30;;;1.93;;
3985;SDS011;2007;48.750;9.278;2022-11-09T08:08:01;2.27;;;1.90;;
3985;SDS011;2007;48.750;9.278;2022-11-09T08:10:31;3.10;;;2.10;;
3985;SDS011;2007;48.750;9.278;2022-11-09T08:13:01;2.47;;;2.20;;
3985;SDS011;2007;48.750;9.278;2022-11-09T08:15:30;2.27;;;2.00;;
3985;SDS011;2007;48.750;9.278;2022-11-09T08:17:59;3.07;;;2.10;;
3985;SDS011;2007;48.750;9.278;2022-11-09T08:20:29;2.90;;;2.10;;
3985;SDS011;2007;48.750;9.278;2022-11-09T08:22:57;3.00;;;2.03;;
3985;SDS011;2007;48.750;9.278;2022-11-09T08:25:30;2.67;;;2.10;;
3985;SDS011;2007;48.750;9.278;2022-11-09T08:27:59;2.47;;;2.27;;
3985;SDS011;2007;48.750;9.278;2022-11-09T08:30:28;2.47;;;1.97;;
3985;SDS011;2007;48.750;9.278;2022-11-09T08:32:57;2.90;;;2.20;;
3985;SDS011;2007;48.750;9.278;2022-11-09T08:35:25;3.07;;;2.60;;
3985;SDS011;2007;48.750;9.278;2022-11-09T08:37:57;2.67;;;2.17;;
3985;SDS011;2007;48.750;9.278;2022-11-09T08:40:28;2.43;;;2.00;;
3985;SDS011;2007;48.750;9.278;2022-11-09T08:42:59;2.90;;;2.17;;
3985;SDS011;2007;48.750;9.278;2022-11-09T08:45:27;2.10;;;1.80;;
3985;SDS011;2007;48.750;9.278;2022-11-09T08:47:57;2.50;;;2.00;;
3985;SDS011;2007;48.750;9.278;2022-11-09T08:50:25;2.60;;;1.83;;
3985;SDS011;2007;48.750;9.278;2022-11-09T08:52:55;2.83;;;2.27;;
3985;SDS011;2007;48.750;9.278;2022-11-09T08:55:23;2.03;;;1.83;;
3985;SDS011;2007;48.750;9.278;2022-11-09T08:57:52;1.97;;;1.63;;
3985;SDS011;2007;48.750;9.278;2022-11-09T09:00:21;2.30;;;1.97;;
3985;SDS011;2007;48.750;9.278;2022-11-09T09:02:49;2.93;;;2.13;;
3985;SDS011;2007;48.750;9.278;2022-11-09T09:05:17;3.10;;;1.90;;
3985;SDS011;2007;48.750;9.278;2022-11-09T09:07:45;3.20;;;1.90;;
3985;SDS011;2007;48.750;9.278;2022-11-09T09:10:14;2.53;;;2.13;;
3985;SDS011;2007;48.750;9.278;2022-11-09T09:12:42;6.90;;;2.40;;
3985;SDS011;2007;48.750;9.278;2022-11-09T09:15:10;3.17;;;2.20;;
3985;SDS011;2007;48.750;9.278;2022-11-09T09:17:38;2.53;;;2.03;;
3985;SDS011;2007;48.750;9.278;2022-11-09T09:20:06;2.67;;;1.90;;
3985;SDS011;2007;48.750;9.278;2022-11-09T09:22:34;2.20;;;1.90;;
3985;SDS011;2007;48.750;9.278;2022-11-09T09:25:03;2.53;;;2.17;;
3985;SDS011;2007;48.750;9.278;2022-11-09T09:27:33;2.73;;;2.00;;
3985;SDS011;2007;48.750;9.278;2022-11-09T09:30:01;2.23;;;2.00;;
3985;SDS011;2007;48.750;9.278;2022-11-09T09:32:30;3.40;;;2.67;;
3985;SDS011;2007;48.750;9.278;2022-11-09T09:34:57;2.93;;;1.77;;
3985;SDS011;2007;48.750;9.278;2022-11-09T09:37:25;2.20;;;1.80;;
3985;SDS011;2007;48.750;9.278;2022-11-09T09:39:53;3.33;;;2.00;;
3985;SDS011;2007;48.750;9.278;2022-11-09T09:42:23;1.93;;;1.47;;
3985;SDS011;2007;48.750;9.278;2022-11-09T09:44:58;2.93;;;1.90;;
3985;SDS011;2007;48.750;9.278;2022-11-09T09:47:31;3.67;;;1.80;;
3985;SDS011;2007;48.750;9.278;2022-11-09T09:50:08;3.30;;;2.03;;
3985;SDS011;2007;48.750;9.278;2022-11-09T09:52:41;2.17;;;1.83;;
3985;SDS011;2007;48.750;9.278;2022-11-09T09:55:33;2.30;;;2.00;;
3985;SDS011;2007;48.750;9.278;2022-11-09T09:58:05;1.90;;;1.70;;
3985;SDS011;2007;48.750;9.278;2022-11-09T10:00:38;2.60;;;1.97;;
3985;SDS011;2007;48.750;9.278;2022-11-09T10:03:12;2.20;;;1.70;;
3985;SDS011;2007;48.750;9.278;2022-11-09T10:05:44;2.57;;;2.17;;
3985;SDS011;2007;48.750;9.278;2022-11-09T10:08:19;2.00;;;1.53;;
3985;SDS011;2007;48.750;9.278;2022-11-09T10:10:55;2.17;;;1.50;;
3985;SDS011;2007;48.750;9.278;2022-11-09T10:13:40;2.43;;;2.13;;
3985;SDS011;2007;48.750;9.278;2022-11-09T10:16:20;2.20;;;1.57;;
3985;SDS011;2007;48.750;9.278;2022-11-09T10:19:02;2.03;;;1.80;;
3985;SDS011;2007;48.750;9.278;2022-11-09T10:21:52;1.73;;;1.47;;
3985;SDS011;2007;48.750;9.278;2022-11-09T10:24:27;2.73;;;1.87;;
3985;SDS011;2007;48.750;9.278;2022-11-09T10:27:26;2.00;;;1.70;;
3985;SDS011;2007;48.750;9.278;2022-11-09T10:30:00;1.60;;;1.30;;
3985;SDS011;2007;48.750;9.278;2022-11-09T10:32:30;2.17;;;1.67;;
3985;SDS011;2007;48.750;9.278;2022-11-09T10:35:00;1.80;;;1.47;;
3985;SDS011;2007;48.750;9.278;2022-11-09T10:37:35;2.77;;;2.27;;
3985;SDS011;2007;48.750;9.278;2022-11-09T10:40:08;3.60;;;1.97;;
3985;SDS011;2007;48.750;9.278;2022-11-09T10:42:44;2.60;;;1.80;;
3985;SDS011;2007;48.750;9.278;2022-11-09T10:45:17;2.10;;;1.70;;
3985;SDS011;2007;48.750;9.278;2022-11-09T10:47:53;2.13;;;1.90;;
3985;SDS011;2007;48.750;9.278;2022-11-09T10:50:23;2.57;;;1.80;;
3985;SDS011;2007;48.750;9.278;2022-11-09T10:53:08;2.57;;;1.80;;
3985;SDS011;2007;48.750;9.278;2022-11-09T10:55:48;2.30;;;1.90;;
3985;SDS011;2007;48.750;9.278;2022-11-09T10:58:25;2.57;;;2.07;;
3985;SDS011;2007;48.750;9.278;2022-11-09T11:00:57;2.53;;;2.03;;
3985;SDS011;2007;48.750;9.278;2022-11-09T11:03:33;2.40;;;1.63;;
3985;SDS011;2007;48.750;9.278;2022-11-09T11:06:03;3.10;;;1.93;;
3985;SDS011;2007;48.750;9.278;2022-11-09T11:08:35;2.37;;;1.70;;
3985;SDS011;2007;48.750;9.278;2022-11-09T11:14:09;2.10;;;1.73;;
3985;SDS011;2007;48.750;9.278;2022-11-09T11:16:47;3.70;;;2.40;;
3985;SDS011;2007;48.750;9.278;2022-11-09T11:19:26;2.93;;;2.10;;
3985;SDS011;2007;48.750;9.278;2022-11-09T11:22:08;2.43;;;1.87;;
3985;SDS011;2007;48.750;9.278;2022-11-09T11:24:45;2.40;;;1.50;;
3985;SDS011;2007;48.750;9.278;2022-11-09T11:27:18;1.93;;;1.60;;
3985;SDS011;2007;48.750;9.278;2022-11-09T11:29:51;2.50;;;1.93;;
3985;SDS011;2007;48.750;9.278;2022-11-09T11:32:26;2.03;;;1.70;;
3985;SDS011;2007;48.750;9.278;2022-11-09T11:34:55;2.50;;;1.90;;
3985;SDS011;2007;48.750;9.278;2022-11-09T11:37:29;2.60;;;1.93;;
3985;SDS011;2007;48.750;9.278;2022-11-09T11:40:12;2.80;;;1.67;;
3985;SDS011;2007;48.750;9.278;2022-11-09T11:42:53;2.10;;;1.53;;
3985;SDS011;2007;48.750;9.278;2022-11-09T11:45:39;2.00;;;1.77;;
3985;SDS011;2007;48.750;9.278;2022-11-09T11:48:15;2.10;;;1.50;;
3985;SDS011;2007;48.750;9.278;2022-11-09T11:50:58;2.60;;;2.07;;
3985;SDS011;2007;48.750;9.278;2022-11-09T11:53:37;2.40;;;1.47;;
3985;SDS011;2007;48.750;9.278;2022-11-09T11:56:18;2.20;;;1.60;;
3985;SDS011;2007;48.750;9.278;2022-11-09T11:59:04;1.90;;;1.40;;
3985;SDS011;2007;48.750;9.278;2022-11-09T12:01:55;2.70;;;1.70;;
3985;SDS011;2007;48.750;9.278;2022-11-09T12:04:39;2.30;;;1.80;;
3985;SDS011;2007;48.750;9.278;2022-11-09T12:07:27;2.03;;;1.40;;
3985;SDS011;2007;48.750;9.278;2022-11-09T12:10:12;3.23;;;2.10;;
3985;SDS011;2007;48.750;9.278;2022-11-09T12:12:51;2.93;;;2.43;;
3985;SDS011;2007;48.750;9.278;2022-11-09T12:15:30;2.03;;;1.73;;
3985;SDS011;2007;48.750;9.278;2022-11-09T12:18:09;1.70;;;1.40;;
3985;SDS011;2007;48.750;9.278;2022-11-09T12:20:52;2.07;;;1.87;;
3985;SDS011;2007;48.750;9.278;2022-11-09T12:23:35;2.20;;;1.60;;
3985;SDS011;2007;48.750;9.278;2022-11-09T12:26:13;2.47;;;1.50;;
3985;SDS011;2007;48.750;9.278;2022-11-09T12:28:53;2.07;;;1.40;;
3985;SDS011;2007;48.750;9.278;2022-11-09T12:31:32;2.17;;;1.70;;
3985;SDS011;2007;48.750;9.278;2022-11-09T12:34:10;2.30;;;1.77;;
3985;SDS011;2007;48.750;9.278;2022-11-09T12:36:46;2.30;;;2.03;;
3985;SDS011;2007;48.750;9.278;2022-11-09T12:39:21;2.20;;;1.60;;
3985;SDS011;2007;48.750;9.278;2022-11-09T12:41:54;2.03;;;1.60;;
3985;SDS011;2007;48.750;9.278;2022-11-09T12:44:31;2.10;;;1.90;;
3985;SDS011;2007;48.750;9.278;2022-11-09T12:47:01;2.00;;;1.67;;
3985;SDS011;2007;48.750;9.278;2022-11-09T12:49:34;2.47;;;1.87;;
3985;SDS011;2007;48.750;9.278;2022-11-09T12:52:03;2.00;;;1.80;;
3985;SDS011;2007;48.750;9.278;2022-11-09T12:54:34;2.10;;;1.60;;
3985;SDS011;2007;48.750;9.278;2022-11-09T12:57:06;2.07;;;1.40;;
3985;SDS011;2007;48.750;9.278;2022-11-09T12:59:43;2.10;;;1.80;;
3985;SDS011;2007;48.750;9.278;2022-11-09T13:02:19;2.23;;;1.53;;
3985;SDS011;2007;48.750;9.278;2022-11-09T13:04:54;2.40;;;1.40;;
3985;SDS011;2007;48.750;9.278;2022-11-09T13:10:24;2.77;;;1.87;;
3985;SDS011;2007;48.750;9.278;2022-11-09T13:13:00;1.73;;;1.53;;
3985;SDS011;2007;48.750;9.278;2022-11-09T13:18:46;2.40;;;1.77;;
3985;SDS011;2007;48.750;9.278;2022-11-09T13:21:35;2.20;;;1.60;;
3985;SDS011;2007;48.750;9.278;2022-11-09T13:27:29;2.57;;;2.10;;
3985;SDS011;2007;48.750;9.278;2022-11-09T13:33:16;1.87;;;1.50;;
3985;SDS011;2007;48.750;9.278;2022-11-09T13:41:54;2.10;;;1.50;;
3985;SDS011;2007;48.750;9.278;2022-11-09T13:44:24;2.00;;;1.80;;
3985;SDS011;2007;48.750;9.278;2022-11-09T13:47:01;2.10;;;1.77;;
3985;SDS011;2007;48.750;9.278;2022-11-09T13:55:21;2.93;;;1.80;;
3985;SDS011;2007;48.750;9.278;2022-11-09T13:57:57;2.47;;;1.53;;
3985;SDS011;2007;48.750;9.278;2022-11-09T14:00:30;2.03;;;1.60;;
3985;SDS011;2007;48.750;9.278;2022-11-09T14:02:59;2.27;;;1.70;;
3985;SDS011;2007;48.750;9.278;2022-11-09T14:05:29;1.90;;;1.40;;
3985;SDS011;2007;48.750;9.278;2022-11-09T14:08:01;1.80;;;1.40;;
3985;SDS011;2007;48.750;9.278;2022-11-09T14:10:43;1.70;;;1.30;;
3985;SDS011;2007;48.750;9.278;2022-11-09T14:13:22;1.73;;;1.40;;
3985;SDS011;2007;48.750;9.278;2022-11-09T14:16:08;1.60;;;1.20;;
3985;SDS011;2007;48.750;9.278;2022-11-09T14:18:49;2.20;;;1.67;;
3985;SDS011;2007;48.750;9.278;2022-11-09T14:21:29;2.00;;;1.43;;
3985;SDS011;2007;48.750;9.278;2022-11-09T14:24:06;1.90;;;1.50;;
3985;SDS011;2007;48.750;9.278;2022-11-09T14:29:27;1.80;;;1.40;;
3985;SDS011;2007;48.750;9.278;2022-11-09T14:32:00;1.70;;;1.20;;
3985;SDS011;2007;48.750;9.278;2022-11-09T14:34:29;1.90;;;1.30;;
3985;SDS011;2007;48.750;9.278;2022-11-09T14:36:56;2.03;;;1.60;;
3985;SDS011;2007;48.750;9.278;2022-11-09T14:39:31;1.87;;;1.50;;
3985;SDS011;2007;48.750;9.278;2022-11-09T14:42:00;1.90;;;1.40;;
3985;SDS011;2007;48.750;9.278;2022-11-09T14:44:28;2.30;;;1.70;;
3985;SDS011;2007;48.750;9.278;2022-11-09T14:47:02;2.10;;;1.57;;
3985;SDS011;2007;48.750;9.278;2022-11-09T14:49:30;1.87;;;1.33;;
3985;SDS011;2007;48.750;9.278;2022-11-09T14:51:59;1.97;;;1.60;;
3985;SDS011;2007;48.750;9.278;2022-11-09T14:54:27;2.87;;;1.63;;
3985;SDS011;2007;48.750;9.278;2022-11-09T14:56:55;2.17;;;1.20;;
3985;SDS011;2007;48.750;9.278;2022-11-09T14:59:26;2.20;;;1.37;;
3985;SDS011;2007;48.750;9.278;2022-11-09T15:02:00;1.70;;;1.10;;
3985;SDS011;2007;48.750;9.278;2022-11-09T15:07:19;2.30;;;1.57;;
3985;SDS011;2007;48.750;9.278;2022-11-09T15:09:51;1.70;;;1.20;;
3985;SDS011;2007;48.750;9.278;2022-11-09T15:12:21;2.17;;;1.63;;
3985;SDS011;2007;48.750;9.278;2022-11-09T15:14:50;2.03;;;1.70;;
3985;SDS011;2007;48.750;9.278;2022-11-09T15:17:23;1.80;;;1.37;;
3985;SDS011;2007;48.750;9.278;2022-11-09T15:19:55;2.93;;;1.40;;
3985;SDS011;2007;48.750;9.278;2022-11-09T15:22:39;2.27;;;1.30;;
3985;SDS011;2007;48.750;9.278;2022-11-09T15:25:20;1.90;;;1.47;;
3985;SDS011;2007;48.750;9.278;2022-11-09T15:27:55;1.63;;;1.30;;
3985;SDS011;2007;48.750;9.278;2022-11-09T15:30:26;1.60;;;1.03;;
3985;SDS011;2007;48.750;9.278;2022-11-09T15:32:57;1.97;;;1.30;;
3985;SDS011;2007;48.750;9.278;2022-11-09T15:35:25;1.93;;;1.20;;
3985;SDS011;2007;48.750;9.278;2022-11-09T15:37:54;2.20;;;1.60;;
3985;SDS011;2007;48.750;9.278;2022-11-09T15:40:22;1.63;;;1.20;;
3985;SDS011;2007;48.750;9.278;2022-11-09T15:42:51;2.10;;;1.40;;
3985;SDS011;2007;48.750;9.278;2022-11-09T15:45:20;1.60;;;1.10;;
3985;SDS011;2007;48.750;9.278;2022-11-09T15:47:48;2.03;;;1.30;;
3985;SDS011;2007;48.750;9.278;2022-11-09T15:50:20;2.07;;;1.40;;
3985;SDS011;2007;48.750;9.278;2022-11-09T15:52:51;1.93;;;1.50;;
3985;SDS011;2007;48.750;9.278;2022-11-09T15:55:20;1.70;;;1.20;;
3985;SDS011;2007;48.750;9.278;2022-11-09T15:57:49;1.80;;;1.20;;
3985;SDS011;2007;48.750;9.278;2022-11-09T16:00:19;1.80;;;1.37;;
3985;SDS011;2007;48.750;9.278;2022-11-09T16:02:48;1.70;;;1.40;;
3985;SDS011;2007;48.750;9.278;2022-11-09T16:05:16;1.60;;;1.10;;
3985;SDS011;2007;48.750;9.278;2022-11-09T16:07:49;2.10;;;1.60;;
3985;SDS011;2007;48.750;9.278;2022-11-09T16:10:18;1.77;;;1.20;;
3985;SDS011;2007;48.750;9.278;2022-11-09T16:12:48;1.63;;;1.10;;
3985;SDS011;2007;48.750;9.278;2022-11-09T16:15:18;1.80;;;1.00;;